createdAt,value
2022-09-10T00:01:18.742Z,17.94
2022-09-10T00:03:46.514Z,17.92
2022-09-10T00:06:14.184Z,17.91
2022-09-10T00:08:41.082Z,17.90
2022-09-10T00:11:10.281Z,17.87
2022-09-10T00:13:39.510Z,17.88
2022-09-10T00:16:09.633Z,17.87
2022-09-10T00:18:37.441Z,17.89
2022-09-10T00:21:14.352Z,17.86
2022-09-10T00:23:45.989Z,17.87
2022-09-10T00:26:23.480Z,17.85
2022-09-10T00:28:52.138Z,17.84
2022-09-10T00:31:20.201Z,17.82
2022-09-10T00:33:47.132Z,17.80
2022-09-10T00:36:26.013Z,17.80
2022-09-10T00:38:55.233Z,17.79
2022-09-10T00:41:25.059Z,17.79
2022-09-10T00:44:35.546Z,17.80
2022-09-10T00:47:02.767Z,17.80
2022-09-10T00:49:42.388Z,17.79
2022-09-10T00:52:10.100Z,17.78
2022-09-10T00:54:39.461Z,17.76
2022-09-10T00:57:12.775Z,17.76
2022-09-10T00:59:47.056Z,17.77
2022-09-10T01:02:15.235Z,17.78
2022-09-10T01:04:43.575Z,17.77
2022-09-10T01:07:14.055Z,17.75
2022-09-10T01:09:41.289Z,17.75
2022-09-10T01:12:16.326Z,17.73
2022-09-10T01:14:58.247Z,17.74
2022-09-10T01:17:45.279Z,17.75
2022-09-10T01:20:36.362Z,17.73
2022-09-10T01:23:41.643Z,17.69
2022-09-10T01:26:52.253Z,17.72
2022-09-10T01:29:41.954Z,17.70
2022-09-10T01:32:15.718Z,17.71
2022-09-10T01:34:59.498Z,17.70
2022-09-10T01:37:30.448Z,17.68
2022-09-10T01:39:59.373Z,17.64
2022-09-10T01:42:28.205Z,17.66
2022-09-10T01:45:00.205Z,17.66
2022-09-10T01:47:51.785Z,17.67
2022-09-10T01:50:30.683Z,17.66
2022-09-10T01:53:21.020Z,17.64
2022-09-10T01:55:58.827Z,17.65
2022-09-10T01:58:38.474Z,17.63
2022-09-10T02:01:16.999Z,17.62
2022-09-10T02:03:48.257Z,17.62
2022-09-10T02:06:19.705Z,17.60
2022-09-10T02:08:50.251Z,17.60
2022-09-10T02:11:17.378Z,17.61
2022-09-10T02:13:44.397Z,17.62
2022-09-10T02:16:31.486Z,17.61
2022-09-10T02:18:59.966Z,17.59
2022-09-10T02:21:27.070Z,17.60
2022-09-10T02:24:04.565Z,17.59
2022-09-10T02:26:35.366Z,17.59
2022-09-10T02:29:02.321Z,17.58
2022-09-10T02:31:29.984Z,17.57
2022-09-10T02:33:57.018Z,17.58
2022-09-10T02:36:26.425Z,17.58
2022-09-10T02:38:53.952Z,17.53
2022-09-10T02:41:22.003Z,17.55
2022-09-10T02:43:49.054Z,17.54
2022-09-10T02:46:15.971Z,17.54
2022-09-10T02:48:42.865Z,17.54
2022-09-10T02:51:09.801Z,17.53
2022-09-10T02:53:36.587Z,17.54
2022-09-10T02:56:03.458Z,17.54
2022-09-10T02:58:34.337Z,17.52
2022-09-10T03:01:10.223Z,17.51
2022-09-10T03:03:38.211Z,17.50
2022-09-10T03:06:05.691Z,17.50
2022-09-10T03:08:32.939Z,17.48
2022-09-10T03:11:00.150Z,17.48
2022-09-10T03:13:28.243Z,17.48
2022-09-10T03:15:59.093Z,17.48
2022-09-10T03:18:28.400Z,17.46
2022-09-10T03:20:55.352Z,17.46
2022-09-10T03:23:22.116Z,17.46
2022-09-10T03:25:49.892Z,17.45
2022-09-10T03:28:16.961Z,17.44
2022-09-10T03:30:43.828Z,17.44
2022-09-10T03:33:11.974Z,17.39
2022-09-10T03:35:39.060Z,17.42
2022-09-10T03:38:06.101Z,17.43
2022-09-10T03:40:34.347Z,17.42
2022-09-10T03:43:01.459Z,17.42
2022-09-10T03:45:28.868Z,17.42
2022-09-10T03:47:55.751Z,17.42
2022-09-10T03:50:22.690Z,17.42
2022-09-10T03:52:50.333Z,17.41
2022-09-10T03:55:18.223Z,17.41
2022-09-10T03:57:45.923Z,17.40
2022-09-10T04:00:12.991Z,17.40
2022-09-10T04:02:41.906Z,17.40
2022-09-10T04:05:09.458Z,17.38
2022-09-10T04:07:37.024Z,17.38
2022-09-10T04:10:04.429Z,17.38
2022-09-10T04:12:31.226Z,17.39
2022-09-10T04:14:58.153Z,17.38
2022-09-10T04:17:25.633Z,17.37
2022-09-10T04:19:52.453Z,17.35
2022-09-10T04:22:19.271Z,17.36
2022-09-10T04:24:46.099Z,17.36
2022-09-10T04:27:12.966Z,17.35
2022-09-10T04:29:39.777Z,17.35
2022-09-10T04:32:07.633Z,17.36
2022-09-10T04:34:34.534Z,17.35
2022-09-10T04:37:01.666Z,17.35
2022-09-10T04:39:28.490Z,17.34
2022-09-10T04:41:55.276Z,17.33
2022-09-10T04:44:22.120Z,17.31
2022-09-10T04:46:49.052Z,17.33
2022-09-10T04:49:15.860Z,17.33
2022-09-10T04:51:42.805Z,17.33
2022-09-10T04:54:13.735Z,17.32
2022-09-10T04:56:41.160Z,17.31
2022-09-10T04:59:07.997Z,17.32
2022-09-10T05:01:35.459Z,17.31
2022-09-10T05:04:03.470Z,17.30
2022-09-10T05:06:30.320Z,17.31
2022-09-10T05:08:57.147Z,17.31
2022-09-10T05:11:24.025Z,17.32
2022-09-10T05:13:51.058Z,17.31
2022-09-10T05:16:17.953Z,17.32
2022-09-10T05:18:44.792Z,17.30
2022-09-10T05:21:11.685Z,17.30
2022-09-10T05:23:39.745Z,17.28
2022-09-10T05:26:06.733Z,17.32
2022-09-10T05:28:33.614Z,17.35
2022-09-10T05:31:00.382Z,17.33
2022-09-10T05:33:27.262Z,17.36
2022-09-10T05:35:54.063Z,17.36
2022-09-10T05:38:20.964Z,17.38
2022-09-10T05:40:48.426Z,17.39
2022-09-10T05:43:15.622Z,17.39
2022-09-10T05:45:42.604Z,17.38
2022-09-10T05:48:09.508Z,17.36
2022-09-10T05:50:38.465Z,17.39
2022-09-10T05:53:05.383Z,17.39
2022-09-10T05:55:33.451Z,17.39
2022-09-10T05:58:00.281Z,17.38
2022-09-10T06:00:27.130Z,17.39
2022-09-10T06:02:54.045Z,17.39
2022-09-10T06:05:23.999Z,17.40
2022-09-10T06:07:51.163Z,17.40
2022-09-10T06:10:18.060Z,17.40
2022-09-10T06:12:49.954Z,17.40
2022-09-10T06:15:16.851Z,17.40
2022-09-10T06:17:43.721Z,17.40
2022-09-10T06:20:14.094Z,17.40
2022-09-10T06:22:41.000Z,17.41
2022-09-10T06:25:08.404Z,17.41
2022-09-10T06:27:35.356Z,17.41
2022-09-10T06:30:02.215Z,17.40
2022-09-10T06:32:29.080Z,17.41
2022-09-10T06:34:55.976Z,17.41
2022-09-10T06:37:23.215Z,17.39
2022-09-10T06:39:50.202Z,17.42
2022-09-10T06:42:17.287Z,17.41
2022-09-10T06:44:44.609Z,17.43
2022-09-10T06:47:55.463Z,17.40
2022-09-10T06:49:58.684Z,17.42
2022-09-10T06:52:25.909Z,17.42
2022-09-10T06:54:53.351Z,17.43
2022-09-10T06:57:20.309Z,17.43
2022-09-10T06:59:47.872Z,17.44
2022-09-10T07:02:15.612Z,17.45
2022-09-10T07:04:42.541Z,17.44
2022-09-10T07:07:09.943Z,17.45
2022-09-10T07:09:36.867Z,17.45
2022-09-10T07:12:05.111Z,17.45
2022-09-10T07:14:33.441Z,17.47
2022-09-10T07:17:00.338Z,17.46
2022-09-10T07:19:27.301Z,17.46
2022-09-10T07:21:54.160Z,17.47
2022-09-10T07:24:21.789Z,17.49
2022-09-10T07:26:48.756Z,17.49
2022-09-10T07:29:15.590Z,17.51
2022-09-10T07:31:42.439Z,17.52
2022-09-10T07:34:09.498Z,17.50
2022-09-10T07:36:36.417Z,17.54
2022-09-10T07:39:04.629Z,17.53
2022-09-10T07:41:34.569Z,17.54
2022-09-10T07:44:01.442Z,17.54
2022-09-10T07:46:28.803Z,17.58
2022-09-10T07:48:58.440Z,17.59
2022-09-10T07:51:28.129Z,17.61
2022-09-10T07:53:59.627Z,17.63
2022-09-10T07:56:26.980Z,17.64
2022-09-10T07:58:55.230Z,17.67
2022-09-10T08:01:22.124Z,17.69
2022-09-10T08:03:49.185Z,17.71
2022-09-10T08:06:17.031Z,17.73
2022-09-10T08:08:44.151Z,17.75
2022-09-10T08:11:17.734Z,17.76
2022-09-10T08:13:47.516Z,17.79
2022-09-10T08:16:17.750Z,17.82
2022-09-10T08:18:45.653Z,17.84
2022-09-10T08:21:12.802Z,17.87
2022-09-10T08:23:39.966Z,17.89
2022-09-10T08:26:08.590Z,17.93
2022-09-10T08:28:36.702Z,17.94
2022-09-10T08:31:09.385Z,17.96
2022-09-10T08:33:39.794Z,17.97
2022-09-10T08:36:09.115Z,17.98
2022-09-10T08:38:40.203Z,17.98
2022-09-10T08:41:14.126Z,18.02
2022-09-10T08:43:49.010Z,18.03
2022-09-10T08:46:28.079Z,18.08
2022-09-10T08:49:07.105Z,18.08
2022-09-10T08:51:44.726Z,18.09
2022-09-10T08:54:21.879Z,18.09
2022-09-10T08:56:50.084Z,18.10
2022-09-10T08:59:31.425Z,18.12
2022-09-10T09:02:03.958Z,18.11
2022-09-10T09:05:03.473Z,18.17
2022-09-10T09:07:39.954Z,18.22
2022-09-10T09:10:24.840Z,18.25
2022-09-10T09:13:10.002Z,18.29
2022-09-10T09:15:51.882Z,18.33
2022-09-10T09:18:28.788Z,18.33
2022-09-10T09:21:01.319Z,18.24
2022-09-10T09:23:57.063Z,18.24
2022-09-10T09:26:36.037Z,18.26
2022-09-10T09:29:13.216Z,18.28
2022-09-10T09:31:50.504Z,18.32
2022-09-10T09:34:32.857Z,18.35
2022-09-10T09:37:03.982Z,18.38
2022-09-10T09:40:02.766Z,18.40
2022-09-10T09:42:45.938Z,18.40
2022-09-10T09:45:23.761Z,18.47
2022-09-10T09:47:51.401Z,18.48
2022-09-10T09:50:21.282Z,18.52
2022-09-10T09:52:48.555Z,18.55
2022-09-10T09:55:43.566Z,18.59
2022-09-10T09:58:19.715Z,18.61
2022-09-10T10:00:48.782Z,18.65
2022-09-10T10:03:22.692Z,18.67
2022-09-10T10:05:49.667Z,18.69
2022-09-10T10:08:42.626Z,18.71
2022-09-10T10:11:12.155Z,18.74
2022-09-10T10:13:42.460Z,18.80
2022-09-10T10:16:24.158Z,18.80
2022-09-10T10:18:51.301Z,18.86
2022-09-10T10:21:30.611Z,18.88
2022-09-10T10:23:57.558Z,18.90
2022-09-10T10:26:32.833Z,18.90
2022-09-10T10:29:06.677Z,18.95
2022-09-10T10:31:47.709Z,18.97
2022-09-10T10:34:15.456Z,18.97
2022-09-10T10:36:58.460Z,19.02
2022-09-10T10:39:46.662Z,19.04
2022-09-10T10:42:23.262Z,19.09
2022-09-10T10:44:59.395Z,19.08
2022-09-10T10:47:43.562Z,19.14
2022-09-10T10:50:16.610Z,19.12
2022-09-10T10:53:15.058Z,19.12
2022-09-10T10:55:59.842Z,19.16
2022-09-10T10:58:56.261Z,19.21
2022-09-10T11:01:30.361Z,19.22
2022-09-10T11:04:18.983Z,19.24
2022-09-10T11:06:53.364Z,19.28
2022-09-10T11:09:39.291Z,19.29
2022-09-10T11:12:11.699Z,19.29
2022-09-10T11:14:48.935Z,19.31
2022-09-10T11:17:19.875Z,19.32
2022-09-10T11:20:34.778Z,19.32
2022-09-10T11:23:04.383Z,19.31
2022-09-10T11:25:37.644Z,19.32
2022-09-10T11:28:14.530Z,19.34
2022-09-10T11:30:48.409Z,19.35
2022-09-10T11:33:23.509Z,19.35
2022-09-10T11:36:05.834Z,19.34
2022-09-10T11:38:58.693Z,19.33
2022-09-10T11:41:30.300Z,19.35
2022-09-10T11:44:11.087Z,19.36
2022-09-10T11:46:37.997Z,19.31
2022-09-10T11:49:22.088Z,19.34
2022-09-10T11:51:49.890Z,19.33
2022-09-10T11:54:27.410Z,19.35
2022-09-10T11:57:28.377Z,19.35
2022-09-10T11:59:55.225Z,19.36
2022-09-10T12:02:48.096Z,19.37
2022-09-10T12:05:20.963Z,19.38
2022-09-10T12:08:04.211Z,19.40
2022-09-10T12:10:54.379Z,19.36
2022-09-10T12:13:22.873Z,19.36
2022-09-10T12:16:02.878Z,19.36
2022-09-10T12:18:42.788Z,19.36
2022-09-10T12:21:22.244Z,19.39
2022-09-10T12:23:49.819Z,19.39
2022-09-10T12:26:20.135Z,19.39
2022-09-10T12:28:53.126Z,19.35
2022-09-10T12:31:22.506Z,19.32
2022-09-10T12:33:51.492Z,19.29
2022-09-10T12:36:27.758Z,19.26
2022-09-10T12:39:20.441Z,19.26
2022-09-10T12:41:47.424Z,19.21
2022-09-10T12:44:36.502Z,19.20
2022-09-10T12:47:15.515Z,19.22
2022-09-10T12:49:49.583Z,19.21
2022-09-10T12:52:34.965Z,19.18
2022-09-10T12:55:01.825Z,19.19
2022-09-10T12:57:37.705Z,19.17
2022-09-10T13:00:13.494Z,19.15
2022-09-10T13:02:52.706Z,19.16
2022-09-10T13:05:23.399Z,19.14
2022-09-10T13:08:02.223Z,19.07
2022-09-10T13:10:30.312Z,19.03
2022-09-10T13:13:07.648Z,19.01
2022-09-10T13:15:37.725Z,18.97
2022-09-10T13:18:24.237Z,18.96
2022-09-10T13:20:51.592Z,18.96
2022-09-10T13:23:18.554Z,18.96
2022-09-10T13:25:48.085Z,18.97
2022-09-10T13:28:36.099Z,18.97
2022-09-10T13:31:17.746Z,18.93
2022-09-10T13:33:52.232Z,18.94
2022-09-10T13:36:25.304Z,18.97
2022-09-10T13:39:19.564Z,18.98
2022-09-10T13:42:11.135Z,18.99
2022-09-10T13:44:50.546Z,19.01
2022-09-10T13:47:22.848Z,18.99
2022-09-10T13:50:25.625Z,19.01
2022-09-10T13:53:00.417Z,19.03
2022-09-10T13:55:30.617Z,19.02
2022-09-10T13:58:19.360Z,19.01
2022-09-10T14:00:54.438Z,19.01
2022-09-10T14:03:31.841Z,19.00
2022-09-10T14:06:06.037Z,18.99
2022-09-10T14:08:40.162Z,18.99
2022-09-10T14:11:07.825Z,18.98
2022-09-10T14:13:41.877Z,18.99
2022-09-10T14:16:13.863Z,19.01
2022-09-10T14:18:58.715Z,19.02
2022-09-10T14:21:29.933Z,19.02
2022-09-10T14:24:02.082Z,19.02
2022-09-10T14:26:34.112Z,19.02
2022-09-10T14:29:25.031Z,19.02
2022-09-10T14:31:52.521Z,19.03
2022-09-10T14:34:34.345Z,19.03
2022-09-10T14:37:22.647Z,19.03
2022-09-10T14:39:49.836Z,19.04
2022-09-10T14:42:27.624Z,19.04
2022-09-10T14:44:55.050Z,19.03
2022-09-10T14:47:37.728Z,19.05
2022-09-10T14:50:40.476Z,19.04
2022-09-10T14:53:07.552Z,19.05
2022-09-10T14:55:36.991Z,19.05
2022-09-10T14:58:05.947Z,19.07
2022-09-10T15:00:34.582Z,19.07
2022-09-10T15:03:02.742Z,19.09
2022-09-10T15:05:30.371Z,19.09
2022-09-10T15:07:57.881Z,19.11
2022-09-10T15:10:25.217Z,19.05
2022-09-10T15:12:53.694Z,19.01
2022-09-10T15:15:20.911Z,19.01
2022-09-10T15:17:48.481Z,19.01
2022-09-10T15:20:17.271Z,19.01
2022-09-10T15:22:45.424Z,19.02
2022-09-10T15:25:39.425Z,18.98
2022-09-10T15:28:08.101Z,18.97
2022-09-10T15:30:36.515Z,18.98
2022-09-10T15:33:05.294Z,18.94
2022-09-10T15:35:32.905Z,18.95
2022-09-10T15:38:03.520Z,18.95
2022-09-10T15:40:31.931Z,18.93
2022-09-10T15:42:59.681Z,18.92
2022-09-10T15:45:27.393Z,18.92
2022-09-10T15:47:54.661Z,18.92
2022-09-10T15:50:21.786Z,18.93
2022-09-10T15:52:48.716Z,18.94
2022-09-10T15:55:15.752Z,18.94
2022-09-10T15:57:42.674Z,18.94
2022-09-10T16:00:10.482Z,18.93
2022-09-10T16:02:37.610Z,18.93
2022-09-10T16:05:05.690Z,18.90
2022-09-10T16:07:32.620Z,18.91
2022-09-10T16:09:59.660Z,18.91
2022-09-10T16:12:27.752Z,18.90
2022-09-10T16:14:54.934Z,18.92
2022-09-10T16:17:21.927Z,18.91
2022-09-10T16:19:49.977Z,18.90
2022-09-10T16:22:20.576Z,18.90
2022-09-10T16:24:48.335Z,18.90
2022-09-10T16:27:17.998Z,18.88
2022-09-10T16:29:46.726Z,18.87
2022-09-10T16:32:14.187Z,18.85
2022-09-10T16:34:41.446Z,18.85
2022-09-10T16:37:08.946Z,18.84
2022-09-10T16:39:36.011Z,18.84
2022-09-10T16:42:03.336Z,18.83
2022-09-10T16:44:30.771Z,18.80
2022-09-10T16:46:59.667Z,18.82
2022-09-10T16:49:27.778Z,18.83
2022-09-10T16:51:55.049Z,18.80
2022-09-10T16:54:22.762Z,18.77
2022-09-10T16:56:50.821Z,18.77
2022-09-10T16:59:18.096Z,18.75
2022-09-10T17:01:48.209Z,18.72
2022-09-10T17:04:24.621Z,18.70
2022-09-10T17:06:55.745Z,18.69
2022-09-10T17:09:23.004Z,18.68
2022-09-10T17:11:49.926Z,18.65
2022-09-10T17:14:16.957Z,18.62
2022-09-10T17:16:44.610Z,18.61
2022-09-10T17:19:21.019Z,18.61
2022-09-10T17:21:52.811Z,18.58
2022-09-10T17:24:23.073Z,18.57
2022-09-10T17:26:51.649Z,18.55
2022-09-10T17:29:24.172Z,18.54
2022-09-10T17:31:52.434Z,18.53
2022-09-10T17:34:24.963Z,18.50
2022-09-10T17:36:52.210Z,18.52
2022-09-10T17:39:19.548Z,18.49
2022-09-10T17:41:46.696Z,18.47
2022-09-10T17:44:14.906Z,18.46
2022-09-10T17:46:43.278Z,18.43
2022-09-10T17:49:13.763Z,18.45
2022-09-10T17:51:41.295Z,18.42
2022-09-10T17:54:08.741Z,18.37
2022-09-10T17:56:38.269Z,18.39
2022-09-10T17:59:06.425Z,18.39
2022-09-10T18:01:39.298Z,18.41
2022-09-10T18:04:09.117Z,18.35
2022-09-10T18:06:38.067Z,18.43
2022-09-10T18:09:06.375Z,18.51
2022-09-10T18:11:38.062Z,18.58
2022-09-10T18:14:05.860Z,18.61
2022-09-10T18:16:34.773Z,18.65
2022-09-10T18:19:13.543Z,18.67
2022-09-10T18:21:44.250Z,18.69
2022-09-10T18:24:23.038Z,18.73
2022-09-10T18:26:51.666Z,18.75
2022-09-10T18:29:22.005Z,18.78
2022-09-10T18:31:54.850Z,18.81
2022-09-10T18:34:24.964Z,18.84
2022-09-10T18:36:58.258Z,18.85
2022-09-10T18:39:30.754Z,18.90
2022-09-10T18:41:59.366Z,18.91
2022-09-10T18:44:29.147Z,18.88
2022-09-10T18:46:56.414Z,18.93
2022-09-10T18:49:24.979Z,18.93
2022-09-10T18:51:54.365Z,18.95
2022-09-10T18:54:22.756Z,18.97
2022-09-10T18:56:50.826Z,18.98
2022-09-10T18:59:22.332Z,18.98
2022-09-10T19:01:51.563Z,18.97
2022-09-10T19:04:24.448Z,18.97
2022-09-10T19:06:52.083Z,18.96
2022-09-10T19:09:24.659Z,18.98
2022-09-10T19:11:56.266Z,18.99
2022-09-10T19:14:31.464Z,18.98
2022-09-10T19:17:00.729Z,19.02
2022-09-10T19:19:36.885Z,19.01
2022-09-10T19:22:10.611Z,19.03
2022-09-10T19:24:53.959Z,19.04
2022-09-10T19:27:22.601Z,19.05
2022-09-10T19:29:50.666Z,19.06
2022-09-10T19:32:20.249Z,19.04
2022-09-10T19:34:51.405Z,19.04
2022-09-10T19:37:27.059Z,19.07
2022-09-10T19:39:57.862Z,19.09
2022-09-10T19:42:28.214Z,19.09
2022-09-10T19:44:55.321Z,19.09
2022-09-10T19:47:22.993Z,19.10
2022-09-10T19:49:51.563Z,19.08
2022-09-10T19:52:21.268Z,19.12
2022-09-10T19:54:50.020Z,19.14
2022-09-10T19:57:18.267Z,19.14
2022-09-10T19:59:46.089Z,19.12
2022-09-10T20:02:14.081Z,19.10
2022-09-10T20:04:41.590Z,19.09
2022-09-10T20:07:09.382Z,19.08
2022-09-10T20:09:40.244Z,19.08
2022-09-10T20:12:10.879Z,19.07
2022-09-10T20:14:38.946Z,19.06
2022-09-10T20:17:06.490Z,19.05
2022-09-10T20:19:34.454Z,19.05
2022-09-10T20:22:01.905Z,19.04
2022-09-10T20:24:29.273Z,19.03
2022-09-10T20:26:57.465Z,19.03
2022-09-10T20:29:26.103Z,19.03
2022-09-10T20:31:53.437Z,19.03
2022-09-10T20:34:23.011Z,19.02
2022-09-10T20:36:52.076Z,19.02
2022-09-10T20:39:22.287Z,19.00
2022-09-10T20:41:49.818Z,19.00
2022-09-10T20:44:18.454Z,18.99
2022-09-10T20:46:47.534Z,19.00
2022-09-10T20:49:16.711Z,19.01
2022-09-10T20:51:46.153Z,19.00
2022-09-10T20:54:17.346Z,18.99
2022-09-10T20:56:46.216Z,18.99
2022-09-10T20:59:16.054Z,18.99
2022-09-10T21:01:46.751Z,18.97
2022-09-10T21:04:14.673Z,18.98
2022-09-10T21:06:43.215Z,18.97
2022-09-10T21:09:11.565Z,18.96
2022-09-10T21:11:39.378Z,18.97
2022-09-10T21:14:08.558Z,18.96
2022-09-10T21:16:38.661Z,18.97
2022-09-10T21:19:11.630Z,18.97
2022-09-10T21:21:43.052Z,19.00
2022-09-10T21:24:28.437Z,19.00
2022-09-10T21:26:56.340Z,19.01
2022-09-10T21:29:26.978Z,19.02
2022-09-10T21:31:56.843Z,19.02
2022-09-10T21:34:24.168Z,19.02
2022-09-10T21:37:04.914Z,18.98
2022-09-10T21:39:32.210Z,18.97
2022-09-10T21:42:00.584Z,18.93
2022-09-10T21:44:28.664Z,18.91
2022-09-10T21:46:56.005Z,18.90
2022-09-10T21:49:23.223Z,18.87
2022-09-10T21:51:50.789Z,18.85
2022-09-10T21:54:21.231Z,18.85
2022-09-10T21:56:52.369Z,18.83
2022-09-10T21:59:21.974Z,18.83
2022-09-10T22:01:50.279Z,18.82
2022-09-10T22:04:22.465Z,18.79
2022-09-10T22:06:51.170Z,18.79
2022-09-10T22:09:20.271Z,18.77
2022-09-10T22:11:50.854Z,18.75
2022-09-10T22:14:22.287Z,18.74
2022-09-10T22:16:49.659Z,18.73
2022-09-10T22:19:23.865Z,18.72
2022-09-10T22:21:51.809Z,18.71
2022-09-10T22:24:19.464Z,18.70
2022-09-10T22:26:47.876Z,18.69
2022-09-10T22:29:20.180Z,18.69
2022-09-10T22:31:48.297Z,18.68
2022-09-10T22:34:16.958Z,18.64
2022-09-10T22:36:46.155Z,18.64
2022-09-10T22:39:24.841Z,18.66
2022-09-10T22:41:52.460Z,18.64
2022-09-10T22:44:20.569Z,18.64
2022-09-10T22:46:48.395Z,18.64
2022-09-10T22:49:20.344Z,18.63
2022-09-10T22:51:48.152Z,18.63
2022-09-10T22:54:15.537Z,18.62
2022-09-10T22:56:42.468Z,18.60
2022-09-10T22:59:14.087Z,18.60
2022-09-10T23:01:43.800Z,18.59
2022-09-10T23:04:11.991Z,18.58
2022-09-10T23:06:39.310Z,18.58
2022-09-10T23:09:16.978Z,18.57
2022-09-10T23:11:44.949Z,18.57
2022-09-10T23:14:16.192Z,18.55
2022-09-10T23:16:46.537Z,18.55
2022-09-10T23:19:17.442Z,18.54
2022-09-10T23:21:47.872Z,18.55
2022-09-10T23:24:17.432Z,18.53
2022-09-10T23:26:44.975Z,18.51
2022-09-10T23:29:13.247Z,18.52
2022-09-10T23:31:41.401Z,18.51
2022-09-10T23:34:12.068Z,18.51
2022-09-10T23:36:41.484Z,18.50
2022-09-10T23:39:12.767Z,18.49
2022-09-10T23:41:41.470Z,18.49
2022-09-10T23:44:10.154Z,18.49
2022-09-10T23:46:38.017Z,18.47
2022-09-10T23:49:05.866Z,18.46
2022-09-10T23:51:33.103Z,18.46
2022-09-10T23:54:00.737Z,18.46
2022-09-10T23:56:28.781Z,18.47
2022-09-10T23:58:56.583Z,18.46
